ADDS METAR Data INFO
IDs: Format: Raw Decoded Include TAF

Data at: 1125 UTC 17 Jul 2018

METAR for:KPMP (Pompano Beach Arpt, FL, US)
Text:KPMP 171053Z 00000KT 9SM CLR 27/23 A3010 RMK AO2 SLP193 T02720233
Temperature: 27.2°C ( 81°F)
Dewpoint: 23.3°C ( 74°F) [RH = 79%]
Pressure (altimeter):30.10 inches Hg (1019.4 mb) [Sea level pressure: 1019.3 mb]
Winds:calm
Visibility: 9 sm ( 14 km)
Ceiling:at least 12,000 feet AGL
Clouds:sky clear below 12,000 feet AGL